SVEN weather

Encontrados Airport
Zulia, Venezuela

Public forecast

Using degrees Celsius for public forecast. Weather courtesy of forecast.io.

Closest aviation weather report (METAR) to Encontrados Airport

Report is more than 6 hours old.

Closest report is Santa B├írbara del Zulia Airport, 18.5 nm (34.2 km) ESE. Retrieved 2016/06/08 18:00 UTC (3 years ago):

SVSZ 081800Z 00000KT CAVOK XX/XX Q1012

Closest aviation forecast (TAF) to Encontrados Airport

Closest forecast is Camilo Daza International Airport, 68.5 nm (126.8 km) SSW. Retrieved 2019-10-24 00:33 UTC (3 hours ago):

TAF TAF SKCC 232230Z 2400/2424 36007KT 9999 SCT020TCU BKN080 TEMPO 2400/2402 DZ BECMG 2402/2404 VRB02KT TEMPO 2403/2405 5000 TSRA SCT017CB TEMPO 2409/2412 4000 BCFG SCT010 BECMG 2419/2421 36005KT SCT017CB TX32/2418Z TN22/2411Z